createdAt,value
2023-11-25T00:01:41.229Z,88.28
2023-11-25T00:06:45.911Z,88.21
2023-11-25T00:11:49.301Z,88.13
2023-11-25T00:16:52.470Z,88.16
2023-11-25T00:21:54.852Z,88.20
2023-11-25T00:26:57.480Z,88.44
2023-11-25T00:32:02.279Z,88.15
2023-11-25T00:37:09.591Z,88.13
2023-11-25T00:42:12.569Z,88.16
2023-11-25T00:47:15.123Z,88.30
2023-11-25T00:52:20.246Z,88.32
2023-11-25T00:57:23.003Z,88.23
2023-11-25T01:02:37.372Z,88.14
2023-11-25T01:07:42.576Z,88.28
2023-11-25T01:12:44.902Z,88.40
2023-11-25T01:17:47.357Z,88.46
2023-11-25T01:22:52.343Z,88.67
2023-11-25T01:27:59.712Z,88.94
2023-11-25T01:33:04.115Z,88.95
2023-11-25T01:38:07.250Z,89.33
2023-11-25T01:43:12.513Z,89.77
2023-11-25T01:48:16.029Z,90.18
2023-11-25T01:53:22.302Z,91.22
2023-11-25T01:58:33.779Z,91.78
2023-11-25T02:03:37.494Z,91.80
2023-11-25T02:08:40.390Z,91.91
2023-11-25T02:13:42.684Z,92.09
2023-11-25T02:18:45.688Z,92.21
2023-11-25T02:24:49.241Z,92.28
2023-11-25T02:31:11.436Z,92.78
2023-11-25T02:37:33.440Z,92.87
2023-11-25T02:42:57.292Z,92.93
2023-11-25T02:48:02.199Z,92.99
2023-11-25T02:53:06.047Z,93.01
2023-11-25T02:58:09.418Z,93.37
2023-11-25T03:04:11.586Z,93.69
2023-11-25T03:09:35.002Z,93.96
2023-11-25T03:14:37.180Z,94.17
2023-11-25T03:19:40.236Z,93.98
2023-11-25T03:24:42.839Z,94.32
2023-11-25T03:29:45.073Z,94.16
2023-11-25T03:35:47.198Z,94.47
2023-11-25T03:42:09.068Z,94.73
2023-11-25T03:48:30.992Z,94.59
2023-11-25T03:54:52.954Z,94.63
2023-11-25T04:00:16.491Z,94.67
2023-11-25T04:05:19.247Z,94.50
2023-11-25T04:10:21.665Z,94.37
2023-11-25T04:15:23.937Z,94.44
2023-11-25T04:20:30.274Z,94.22
2023-11-25T04:26:13.606Z,93.99
2023-11-25T04:32:39.470Z,93.91
2023-11-25T04:39:05.872Z,93.82
2023-11-25T04:44:29.227Z,94.06
2023-11-25T04:50:46.256Z,93.89
2023-11-25T04:57:08.357Z,93.74
2023-11-25T05:03:30.301Z,93.63
2023-11-25T05:09:52.550Z,93.70
2023-11-25T05:16:14.790Z,93.48
2023-11-25T05:22:12.754Z,93.37
2023-11-25T05:27:15.021Z,93.51
2023-11-25T05:32:17.729Z,93.44
2023-11-25T05:37:42.263Z,93.36
2023-11-25T05:42:50.128Z,92.94
2023-11-25T05:47:52.897Z,92.86
2023-11-25T05:52:57.977Z,92.88
2023-11-25T05:58:01.114Z,92.98
2023-11-25T06:03:05.716Z,92.73
2023-11-25T06:08:10.627Z,92.37
2023-11-25T06:13:18.325Z,92.44
2023-11-25T06:18:23.680Z,92.60
2023-11-25T06:23:26.545Z,92.78
2023-11-25T06:28:49.233Z,92.50
2023-11-25T06:33:59.910Z,92.18
2023-11-25T06:40:02.162Z,92.20
2023-11-25T06:46:24.316Z,92.33
2023-11-25T06:52:47.726Z,92.27
2023-11-25T06:59:09.681Z,92.05
2023-11-25T07:05:31.589Z,91.90
2023-11-25T07:11:53.520Z,91.83
2023-11-25T07:18:15.493Z,91.89
2023-11-25T07:24:37.381Z,91.57
2023-11-25T07:30:04.390Z,91.46
2023-11-25T07:35:09.195Z,91.21
2023-11-25T07:40:17.104Z,90.95
2023-11-25T07:45:20.003Z,91.12
2023-11-25T07:50:23.430Z,91.21
2023-11-25T07:55:26.370Z,91.38
2023-11-25T08:00:29.465Z,91.71
2023-11-25T08:05:31.960Z,91.21
2023-11-25T08:10:36.799Z,91.30
2023-11-25T08:16:42.203Z,92.04
2023-11-25T08:22:04.998Z,91.60
2023-11-25T08:27:08.336Z,89.32
2023-11-25T08:33:10.638Z,88.78
2023-11-25T08:39:32.568Z,88.14
2023-11-25T08:46:04.784Z,87.74
2023-11-25T08:52:26.844Z,86.51
2023-11-25T08:59:08.855Z,86.76
2023-11-25T09:05:30.922Z,86.34
2023-11-25T09:11:52.910Z,88.39
2023-11-25T09:17:16.934Z,84.69
2023-11-25T09:22:22.081Z,84.21
2023-11-25T09:27:25.169Z,84.13
2023-11-25T09:32:47.730Z,83.92
2023-11-25T09:37:51.999Z,85.06
2023-11-25T09:42:56.294Z,86.36
2023-11-25T09:47:59.364Z,87.66
2023-11-25T09:53:31.421Z,86.54
2023-11-25T09:58:36.237Z,85.38
2023-11-25T10:04:38.697Z,83.93
2023-11-25T10:10:25.596Z,83.20
2023-11-25T10:16:30.899Z,83.42
2023-11-25T10:21:59.621Z,82.16
2023-11-25T10:28:09.231Z,82.49
2023-11-25T10:35:13.190Z,80.85
2023-11-25T10:42:17.114Z,81.51
2023-11-25T10:49:21.089Z,81.01
2023-11-25T10:56:25.961Z,82.68
2023-11-25T11:03:32.680Z,83.55
2023-11-25T11:10:40.014Z,84.55
2023-11-25T11:17:50.099Z,83.44
2023-11-25T11:24:53.912Z,83.38
2023-11-25T11:32:04.497Z,82.03
2023-11-25T11:39:05.111Z,83.97
2023-11-25T11:46:14.816Z,82.25
2023-11-25T11:53:18.588Z,77.76
2023-11-25T12:00:40.695Z,77.77
2023-11-25T12:07:44.533Z,78.40
2023-11-25T12:14:33.646Z,77.40
2023-11-25T12:21:37.261Z,78.37
2023-11-25T12:28:54.282Z,78.32
2023-11-25T12:35:58.246Z,78.40
2023-11-25T12:42:52.034Z,78.62
2023-11-25T12:50:01.242Z,75.95
2023-11-25T12:57:05.091Z,76.40
2023-11-25T13:04:09.942Z,75.34
2023-11-25T13:11:13.784Z,75.83
2023-11-25T13:18:18.505Z,77.00
2023-11-25T13:25:22.550Z,78.18
2023-11-25T13:32:17.410Z,78.89
2023-11-25T13:39:21.413Z,79.17
2023-11-25T13:46:18.367Z,79.84
2023-11-25T13:53:28.261Z,80.71
2023-11-25T14:00:32.210Z,81.22
2023-11-25T14:07:36.022Z,81.69
2023-11-25T14:14:30.385Z,82.05
2023-11-25T14:21:28.669Z,82.54
2023-11-25T14:28:24.822Z,83.07
2023-11-25T14:35:28.567Z,83.45
2023-11-25T14:42:12.674Z,83.99
2023-11-25T14:49:16.594Z,84.29
2023-11-25T14:56:10.189Z,84.52
2023-11-25T15:03:14.231Z,84.83
2023-11-25T15:10:18.155Z,85.15
2023-11-25T15:17:21.911Z,85.42
2023-11-25T15:24:26.298Z,85.81
2023-11-25T15:31:34.292Z,86.47
2023-11-25T15:38:37.983Z,86.66
2023-11-25T15:45:31.405Z,86.79
2023-11-25T15:52:38.431Z,87.22
2023-11-25T15:59:42.860Z,87.49
2023-11-25T16:06:37.330Z,87.74
2023-11-25T16:13:41.226Z,87.51
2023-11-25T16:20:45.263Z,87.89
2023-11-25T16:27:49.038Z,88.39
2023-11-25T16:34:42.524Z,88.60
2023-11-25T16:41:46.494Z,88.89
2023-11-25T16:48:53.870Z,88.94
2023-11-25T16:56:03.153Z,89.18
2023-11-25T17:03:06.083Z,89.43
2023-11-25T17:10:10.280Z,89.63
2023-11-25T17:17:07.117Z,89.54
2023-11-25T17:24:10.921Z,89.43
2023-11-25T17:31:15.041Z,89.94
2023-11-25T17:38:18.668Z,90.24
2023-11-25T17:45:22.486Z,90.33
2023-11-25T17:52:26.451Z,90.47
2023-11-25T17:59:30.395Z,90.94
2023-11-25T18:06:34.322Z,91.06
2023-11-25T18:13:28.017Z,91.27
2023-11-25T18:20:32.175Z,91.19
2023-11-25T18:27:23.166Z,91.20
2023-11-25T18:34:27.255Z,91.42
2023-11-25T18:41:21.632Z,91.44
2023-11-25T18:48:21.977Z,91.61
2023-11-25T18:55:25.713Z,91.54
2023-11-25T19:02:45.636Z,91.98
2023-11-25T19:10:02.720Z,91.88
2023-11-25T19:17:07.230Z,92.33
2023-11-25T19:24:11.326Z,92.21
2023-11-25T19:31:15.970Z,92.08
2023-11-25T19:38:12.880Z,92.02
2023-11-25T19:45:09.668Z,92.07
2023-11-25T19:52:13.695Z,92.38
2023-11-25T19:59:17.585Z,92.28
2023-11-25T20:06:21.971Z,92.37
2023-11-25T20:13:27.533Z,91.94
2023-11-25T20:20:23.900Z,92.15
2023-11-25T20:27:33.163Z,92.19
2023-11-25T20:34:33.720Z,92.47
2023-11-25T20:41:27.393Z,92.49
2023-11-25T20:48:21.435Z,92.49
2023-11-25T20:55:18.317Z,92.72
2023-11-25T21:02:22.898Z,92.63
2023-11-25T21:09:27.198Z,92.97
2023-11-25T21:16:30.980Z,93.12
2023-11-25T21:23:35.304Z,93.19
2023-11-25T21:30:39.730Z,93.10
2023-11-25T21:37:46.115Z,93.11
2023-11-25T21:44:43.683Z,92.95
2023-11-25T21:51:48.086Z,93.04
2023-11-25T21:58:24.497Z,93.20
2023-11-25T22:05:31.391Z,93.38
2023-11-25T22:12:35.433Z,93.42
2023-11-25T22:19:39.289Z,93.52
2023-11-25T22:26:56.867Z,93.33
2023-11-25T22:34:00.713Z,93.47
2023-11-25T22:41:04.526Z,93.57
2023-11-25T22:48:02.020Z,93.69
2023-11-25T22:55:05.926Z,93.51
2023-11-25T23:02:10.290Z,93.68
2023-11-25T23:09:04.900Z,93.42
2023-11-25T23:16:10.880Z,93.42
2023-11-25T23:23:07.332Z,93.19
2023-11-25T23:30:11.251Z,93.46
2023-11-25T23:37:05.242Z,93.50
2023-11-25T23:44:06.684Z,93.24
2023-11-25T23:51:10.524Z,93.15
2023-11-25T23:58:14.257Z,93.15
